createdAt,value
2019-05-14T00:00:18.650Z,55.90
2019-05-14T00:02:51.895Z,56.00
2019-05-14T00:05:22.029Z,56.30
2019-05-14T00:07:52.930Z,56.50
2019-05-14T00:10:23.646Z,56.40
2019-05-14T00:12:54.516Z,56.40
2019-05-14T00:15:25.335Z,56.30
2019-05-14T00:17:56.168Z,56.90
2019-05-14T00:20:27.039Z,57.30
2019-05-14T00:22:57.857Z,57.50
2019-05-14T00:25:28.434Z,57.00
2019-05-14T00:28:01.165Z,57.00
2019-05-14T00:30:31.830Z,57.00
2019-05-14T00:33:02.713Z,57.00
2019-05-14T00:35:35.850Z,56.60
2019-05-14T00:38:06.642Z,57.50
2019-05-14T00:40:37.900Z,56.50
2019-05-14T00:43:08.622Z,57.10
2019-05-14T00:45:41.632Z,57.40
2019-05-14T00:48:13.565Z,57.30
2019-05-14T00:50:44.553Z,57.50
2019-05-14T00:53:15.113Z,57.50
2019-05-14T00:55:45.849Z,57.10
2019-05-14T00:58:16.418Z,57.60
2019-05-14T01:00:47.137Z,57.80
2019-05-14T01:03:17.961Z,57.30
2019-05-14T01:05:48.821Z,57.30
2019-05-14T01:08:21.486Z,58.10
2019-05-14T01:10:52.405Z,57.60
2019-05-14T01:13:23.202Z,57.60
2019-05-14T01:15:54.005Z,57.80
2019-05-14T01:18:24.946Z,57.80
2019-05-14T01:20:55.508Z,57.50
2019-05-14T01:23:26.302Z,57.80
2019-05-14T01:25:56.745Z,57.90
2019-05-14T01:28:27.422Z,57.40
2019-05-14T01:30:57.877Z,57.20
2019-05-14T01:33:28.453Z,57.10
2019-05-14T01:36:01.796Z,56.80
2019-05-14T01:38:31.853Z,56.40
2019-05-14T01:41:02.909Z,56.20
2019-05-14T01:43:33.927Z,56.00
2019-05-14T01:46:04.677Z,56.10
2019-05-14T01:48:35.525Z,56.10
2019-05-14T01:51:06.346Z,55.90
2019-05-14T01:53:37.193Z,55.90
2019-05-14T01:56:08.005Z,56.00
2019-05-14T01:58:38.885Z,55.80
2019-05-14T02:01:11.857Z,55.70
2019-05-14T02:03:42.206Z,55.90
2019-05-14T02:06:12.669Z,55.80
2019-05-14T02:08:45.376Z,56.00
2019-05-14T02:11:15.797Z,55.80
2019-05-14T02:13:48.415Z,55.60
2019-05-14T02:16:19.198Z,55.60
2019-05-14T02:18:51.782Z,55.70
2019-05-14T02:21:22.866Z,55.70
2019-05-14T02:23:53.606Z,55.70
2019-05-14T02:26:24.297Z,55.70
2019-05-14T02:28:54.865Z,55.80
2019-05-14T02:31:29.029Z,55.80
2019-05-14T02:33:59.132Z,55.90
2019-05-14T02:36:30.978Z,56.30
2019-05-14T02:39:01.897Z,56.20
2019-05-14T02:41:34.435Z,56.30
2019-05-14T02:44:05.323Z,56.40
2019-05-14T02:46:36.228Z,56.50
2019-05-14T02:49:10.180Z,56.50
2019-05-14T02:51:39.644Z,56.70
2019-05-14T02:54:10.412Z,56.90
2019-05-14T02:56:40.804Z,57.10
2019-05-14T02:59:11.372Z,57.00
2019-05-14T03:01:42.080Z,56.80
2019-05-14T03:04:12.722Z,57.20
2019-05-14T03:06:44.407Z,57.40
2019-05-14T03:09:15.120Z,57.80
2019-05-14T03:11:48.336Z,57.30
2019-05-14T03:14:19.569Z,57.50
2019-05-14T03:16:50.263Z,57.50
2019-05-14T03:19:21.206Z,57.40
2019-05-14T03:21:52.218Z,57.60
2019-05-14T03:24:23.093Z,57.30
2019-05-14T03:26:53.825Z,57.40
2019-05-14T03:29:26.132Z,57.30
2019-05-14T03:32:02.012Z,57.60
2019-05-14T03:34:32.750Z,57.60
2019-05-14T03:37:03.821Z,57.80
2019-05-14T03:39:35.712Z,57.70
2019-05-14T03:42:09.228Z,57.80
2019-05-14T03:44:39.923Z,57.90
2019-05-14T03:47:10.974Z,57.70
2019-05-14T03:49:42.805Z,57.70
2019-05-14T03:52:13.887Z,57.70
2019-05-14T03:54:44.829Z,57.90
2019-05-14T03:57:15.557Z,58.00
2019-05-14T03:59:49.625Z,57.90
2019-05-14T04:02:20.061Z,57.90
2019-05-14T04:04:50.664Z,58.00
2019-05-14T04:07:23.252Z,58.20
2019-05-14T04:09:55.023Z,58.20
2019-05-14T04:12:29.338Z,58.10
2019-05-14T04:15:01.725Z,58.10
2019-05-14T04:17:38.869Z,58.20
2019-05-14T04:20:09.485Z,58.40
2019-05-14T04:22:41.498Z,58.30
2019-05-14T04:25:12.462Z,58.30
2019-05-14T04:27:43.790Z,58.40
2019-05-14T04:30:19.029Z,58.40
2019-05-14T04:32:50.744Z,58.40
2019-05-14T04:35:22.038Z,58.80
2019-05-14T04:37:52.994Z,58.50
2019-05-14T04:40:24.063Z,58.60
2019-05-14T04:42:54.673Z,58.70
2019-05-14T04:45:25.533Z,58.60
2019-05-14T04:47:59.766Z,58.60
2019-05-14T04:50:29.684Z,58.70
2019-05-14T04:53:00.183Z,58.70
2019-05-14T04:55:32.149Z,58.50
2019-05-14T04:58:03.216Z,58.60
2019-05-14T05:00:33.934Z,58.60
2019-05-14T05:03:08.527Z,58.60
2019-05-14T05:05:39.339Z,58.70
2019-05-14T05:08:13.806Z,58.80
2019-05-14T05:10:42.183Z,58.70
2019-05-14T05:13:12.717Z,58.70
2019-05-14T05:15:43.652Z,58.60
2019-05-14T05:18:18.413Z,58.80
2019-05-14T05:20:50.505Z,58.80
2019-05-14T05:23:20.294Z,58.60
2019-05-14T05:25:51.450Z,58.60
2019-05-14T05:28:22.313Z,58.70
2019-05-14T05:30:53.123Z,59.30
2019-05-14T05:33:23.988Z,58.70
2019-05-14T05:35:54.569Z,58.90
2019-05-14T05:38:25.453Z,59.10
2019-05-14T05:40:56.750Z,59.20
2019-05-14T05:43:28.651Z,58.80
2019-05-14T05:45:59.485Z,58.80
2019-05-14T05:48:31.890Z,58.70
2019-05-14T05:51:02.633Z,58.60
2019-05-14T05:53:33.677Z,58.60
2019-05-14T05:56:04.332Z,58.50
2019-05-14T05:58:35.071Z,58.40
2019-05-14T06:01:09.326Z,58.60
2019-05-14T06:03:39.254Z,58.60
2019-05-14T06:06:13.370Z,58.40
2019-05-14T06:08:42.489Z,58.40
2019-05-14T06:11:13.034Z,58.30
2019-05-14T06:13:43.758Z,58.30
2019-05-14T06:16:14.647Z,58.30
2019-05-14T06:18:47.798Z,58.10
2019-05-14T06:21:19.096Z,58.20
2019-05-14T06:23:50.362Z,58.10
2019-05-14T06:26:21.330Z,57.70
2019-05-14T06:28:51.941Z,57.80
2019-05-14T06:31:22.726Z,57.80
2019-05-14T06:33:54.531Z,57.90
2019-05-14T06:36:25.381Z,57.70
2019-05-14T06:38:58.626Z,57.30
2019-05-14T06:41:29.533Z,56.90
2019-05-14T06:44:00.262Z,56.80
2019-05-14T06:46:30.922Z,56.90
2019-05-14T06:49:01.724Z,56.10
2019-05-14T06:51:32.250Z,56.40
2019-05-14T06:54:03.001Z,55.20
2019-05-14T06:56:33.618Z,55.30
2019-05-14T06:59:04.642Z,54.50
2019-05-14T07:01:35.553Z,54.30
2019-05-14T07:04:08.864Z,53.70
2019-05-14T07:06:39.653Z,53.50
2019-05-14T07:09:10.278Z,53.00
2019-05-14T07:11:41.100Z,52.70
2019-05-14T07:14:11.754Z,52.10
2019-05-14T07:16:42.479Z,52.00
2019-05-14T07:19:15.792Z,51.60
2019-05-14T07:21:45.386Z,52.00
2019-05-14T07:24:19.268Z,51.90
2019-05-14T07:26:49.502Z,51.10
2019-05-14T07:29:20.569Z,50.40
2019-05-14T07:31:51.313Z,50.50
2019-05-14T07:34:21.957Z,50.00
2019-05-14T07:36:52.777Z,50.10
2019-05-14T07:39:23.691Z,49.10
2019-05-14T07:41:54.449Z,49.60
2019-05-14T07:44:25.151Z,49.20
2019-05-14T07:46:55.653Z,48.40
2019-05-14T07:49:28.872Z,47.60
2019-05-14T07:51:58.831Z,47.80
2019-05-14T07:54:29.647Z,46.60
2019-05-14T07:57:00.386Z,47.20
2019-05-14T07:59:31.230Z,47.30
2019-05-14T08:02:01.743Z,45.60
2019-05-14T08:04:32.429Z,45.50
2019-05-14T08:07:02.902Z,45.40
2019-05-14T08:09:34.353Z,44.60
2019-05-14T08:12:05.237Z,45.40
2019-05-14T08:14:46.052Z,45.20
2019-05-14T08:17:08.800Z,45.00
2019-05-14T08:19:40.554Z,44.20
2019-05-14T08:22:11.528Z,43.00
2019-05-14T08:24:42.353Z,43.70
2019-05-14T08:27:13.046Z,42.10
2019-05-14T08:29:43.721Z,42.50
2019-05-14T08:32:14.563Z,43.00
2019-05-14T08:34:47.818Z,42.50
2019-05-14T08:37:19.068Z,41.00
2019-05-14T08:39:50.144Z,41.90
2019-05-14T08:42:20.993Z,41.80
2019-05-14T08:44:51.829Z,40.30
2019-05-14T08:47:22.481Z,41.00
2019-05-14T08:49:53.527Z,40.40
2019-05-14T08:52:24.438Z,39.90
2019-05-14T08:55:09.196Z,39.60
2019-05-14T08:57:29.104Z,38.80
2019-05-14T09:00:00.023Z,39.00
2019-05-14T09:02:30.790Z,38.80
2019-05-14T09:05:03.775Z,38.90
2019-05-14T09:07:33.999Z,38.60
2019-05-14T09:10:08.612Z,38.50
2019-05-14T09:12:39.021Z,38.10
2019-05-14T09:15:10.151Z,36.60
2019-05-14T09:17:40.831Z,36.60
2019-05-14T09:20:11.990Z,36.50
2019-05-14T09:22:43.386Z,35.20
2019-05-14T09:25:14.143Z,34.90
2019-05-14T09:27:44.763Z,34.40
2019-05-14T09:30:18.302Z,33.10
2019-05-14T09:32:49.286Z,33.70
2019-05-14T09:35:21.249Z,33.50
2019-05-14T09:37:51.779Z,33.40
2019-05-14T09:40:22.833Z,32.80
2019-05-14T09:42:54.082Z,32.80
2019-05-14T09:45:25.146Z,31.50
2019-05-14T09:47:55.805Z,32.20
2019-05-14T09:50:28.996Z,32.40
2019-05-14T09:52:59.441Z,32.40
2019-05-14T09:55:30.313Z,32.40
2019-05-14T09:58:00.850Z,31.80
2019-05-14T10:00:31.485Z,31.80
2019-05-14T10:03:02.001Z,31.10
2019-05-14T10:05:32.518Z,30.70
2019-05-14T10:08:03.093Z,30.10
2019-05-14T10:10:34.122Z,30.40
2019-05-14T10:13:04.947Z,29.90
2019-05-14T10:15:35.805Z,30.00
2019-05-14T10:18:11.118Z,29.90
2019-05-14T10:20:45.371Z,29.80
2019-05-14T10:23:11.465Z,29.00
2019-05-14T10:25:42.604Z,29.20
2019-05-14T10:30:54.678Z,29.00
2019-05-14T10:33:25.270Z,29.20
2019-05-14T10:35:58.626Z,29.10
2019-05-14T10:38:29.612Z,28.80
2019-05-14T10:41:00.855Z,28.20
2019-05-14T10:43:31.476Z,28.30
2019-05-14T10:46:03.276Z,28.20
2019-05-14T10:48:33.921Z,27.70
2019-05-14T10:51:04.818Z,27.80
2019-05-14T10:53:35.602Z,28.30
2019-05-14T10:56:06.437Z,28.60
2019-05-14T10:58:37.006Z,28.60
2019-05-14T11:01:11.275Z,28.00
2019-05-14T11:03:40.149Z,27.90
2019-05-14T11:06:11.733Z,27.90
2019-05-14T11:08:42.509Z,27.00
2019-05-14T11:11:13.250Z,27.70
2019-05-14T11:13:44.123Z,27.20
2019-05-14T11:16:14.922Z,27.30
2019-05-14T11:18:45.555Z,27.50
2019-05-14T11:21:24.888Z,27.20
2019-05-14T11:23:49.272Z,27.20
2019-05-14T11:26:20.471Z,26.90
2019-05-14T11:28:51.170Z,25.30
2019-05-14T11:31:21.785Z,26.30
2019-05-14T11:33:52.445Z,26.40
2019-05-14T11:36:23.534Z,26.40
2019-05-14T11:38:54.351Z,25.40
2019-05-14T11:41:25.437Z,26.10
2019-05-14T11:43:56.110Z,24.40
2019-05-14T11:46:41.870Z,24.40
2019-05-14T11:49:01.039Z,25.00
2019-05-14T11:51:58.728Z,25.30
2019-05-14T11:54:04.259Z,25.70
2019-05-14T11:56:41.521Z,25.50
2019-05-14T11:59:08.674Z,25.60
2019-05-14T12:01:39.458Z,25.20
2019-05-14T12:04:10.117Z,25.50
2019-05-14T12:06:40.716Z,25.60
2019-05-14T12:09:12.050Z,25.60
2019-05-14T12:11:43.198Z,26.00
2019-05-14T12:14:13.819Z,25.90
2019-05-14T12:16:44.544Z,25.80
2019-05-14T12:19:15.086Z,25.80
2019-05-14T12:22:02.172Z,25.50
2019-05-14T12:24:18.637Z,25.70
2019-05-14T12:26:50.143Z,24.70
2019-05-14T12:29:20.896Z,25.10
2019-05-14T12:31:51.706Z,25.40
2019-05-14T12:34:22.713Z,26.10
2019-05-14T12:36:53.477Z,26.30
2019-05-14T12:39:24.957Z,26.10
2019-05-14T12:41:58.180Z,26.40
2019-05-14T12:44:29.227Z,26.70
2019-05-14T12:47:00.823Z,26.90
2019-05-14T12:49:31.671Z,27.30
2019-05-14T12:52:17.781Z,27.30
2019-05-14T12:54:34.576Z,27.00
2019-05-14T12:57:05.350Z,27.00
2019-05-14T12:59:38.057Z,27.40
2019-05-14T13:02:09.725Z,27.40
2019-05-14T13:04:41.223Z,27.20
2019-05-14T13:07:12.037Z,27.80
2019-05-14T13:09:42.887Z,28.00
2019-05-14T13:12:13.711Z,28.00
2019-05-14T13:14:44.658Z,27.80
2019-05-14T13:17:15.389Z,28.00
2019-05-14T13:19:48.550Z,27.80
2019-05-14T13:22:30.267Z,27.80
2019-05-14T13:24:50.810Z,28.20
2019-05-14T13:27:21.505Z,28.10
2019-05-14T13:29:52.353Z,28.20
2019-05-14T13:32:22.988Z,26.90
2019-05-14T13:34:53.536Z,27.40
2019-05-14T13:37:24.245Z,27.30
2019-05-14T13:39:55.189Z,27.70
2019-05-14T13:42:25.957Z,27.50
2019-05-14T13:44:58.456Z,27.80
2019-05-14T13:47:29.482Z,27.90
2019-05-14T13:50:00.580Z,27.50
2019-05-14T13:52:31.408Z,28.00
2019-05-14T13:55:01.980Z,28.10
2019-05-14T13:57:32.778Z,28.10
2019-05-14T14:00:04.135Z,28.00
2019-05-14T14:02:36.391Z,27.20
2019-05-14T14:05:08.607Z,26.80
2019-05-14T14:07:40.958Z,27.60
2019-05-14T14:10:12.159Z,27.30
2019-05-14T14:12:43.027Z,27.20
2019-05-14T14:15:13.523Z,27.50
2019-05-14T14:17:44.197Z,27.20
2019-05-14T14:20:14.913Z,27.60
2019-05-14T14:22:45.790Z,28.00
2019-05-14T14:25:17.784Z,27.60
2019-05-14T14:27:48.759Z,28.20
2019-05-14T14:30:19.807Z,28.20
2019-05-14T14:32:50.442Z,28.50
2019-05-14T14:35:23.393Z,28.50
2019-05-14T14:37:53.566Z,28.00
2019-05-14T14:40:24.411Z,28.60
2019-05-14T14:42:55.280Z,28.30
2019-05-14T14:45:28.995Z,29.00
2019-05-14T14:48:01.302Z,28.30
2019-05-14T14:50:30.810Z,28.90
2019-05-14T14:53:01.903Z,28.70
2019-05-14T14:55:32.599Z,28.90
2019-05-14T14:58:03.431Z,29.10
2019-05-14T15:00:34.465Z,28.90
2019-05-14T15:03:05.341Z,28.80
2019-05-14T15:05:38.785Z,29.10
2019-05-14T15:08:10.268Z,29.10
2019-05-14T15:10:40.658Z,29.00
2019-05-14T15:13:11.216Z,28.80
2019-05-14T15:15:41.970Z,28.90
2019-05-14T15:18:14.125Z,29.30
2019-05-14T15:20:45.228Z,29.20
2019-05-14T15:23:19.171Z,29.40
2019-05-14T15:25:48.856Z,29.20
2019-05-14T15:28:19.843Z,29.50
2019-05-14T15:30:50.696Z,29.60
2019-05-14T15:33:21.518Z,29.20
2019-05-14T15:35:53.337Z,29.60
2019-05-14T15:38:24.173Z,29.90
2019-05-14T15:40:55.038Z,29.90
2019-05-14T15:43:28.497Z,30.00
2019-05-14T15:45:59.088Z,30.10
2019-05-14T15:48:30.007Z,30.30
2019-05-14T15:51:00.768Z,30.30
2019-05-14T15:53:31.602Z,30.90
2019-05-14T15:56:02.217Z,31.00
2019-05-14T15:58:33.068Z,31.50
2019-05-14T16:01:03.989Z,31.70
2019-05-14T16:03:34.942Z,31.30
2019-05-14T16:06:05.786Z,31.60
2019-05-14T16:08:39.834Z,31.50
2019-05-14T16:11:11.350Z,31.80
2019-05-14T16:13:41.992Z,32.20
2019-05-14T16:16:12.572Z,32.20
2019-05-14T16:18:43.454Z,32.40
2019-05-14T16:21:14.154Z,32.80
2019-05-14T16:23:44.773Z,33.00
2019-05-14T16:26:15.513Z,32.90
2019-05-14T16:28:46.147Z,32.80
2019-05-14T16:31:18.384Z,32.90
2019-05-14T16:33:50.272Z,32.80
2019-05-14T16:36:21.077Z,32.80
2019-05-14T16:38:52.185Z,32.80
2019-05-14T16:41:22.983Z,35.40
2019-05-14T16:43:53.868Z,36.40
2019-05-14T16:46:24.702Z,36.50
2019-05-14T16:48:55.333Z,36.80
2019-05-14T16:51:26.921Z,35.80
2019-05-14T16:53:59.013Z,35.20
2019-05-14T16:56:29.891Z,35.20
2019-05-14T16:59:00.709Z,35.00
2019-05-14T17:01:33.714Z,35.10
2019-05-14T17:04:03.940Z,34.90
2019-05-14T17:06:35.013Z,34.90
2019-05-14T17:09:08.825Z,34.60
2019-05-14T17:11:39.281Z,35.20
2019-05-14T17:14:10.072Z,35.00
2019-05-14T17:16:41.978Z,35.30
2019-05-14T17:19:13.560Z,35.10
2019-05-14T17:21:44.397Z,35.30
2019-05-14T17:24:15.269Z,35.20
2019-05-14T17:26:46.205Z,35.30
2019-05-14T17:29:19.062Z,35.40
2019-05-14T17:31:49.457Z,35.60
2019-05-14T17:34:20.551Z,35.90
2019-05-14T17:36:51.558Z,35.70
2019-05-14T17:39:22.445Z,36.30
2019-05-14T17:41:53.239Z,35.90
2019-05-14T17:44:24.093Z,36.10
2019-05-14T17:46:54.909Z,36.30
2019-05-14T17:49:28.222Z,36.50
2019-05-14T17:51:58.733Z,36.60
2019-05-14T17:54:29.901Z,36.60
2019-05-14T17:57:00.719Z,36.80
2019-05-14T17:59:33.557Z,36.80
2019-05-14T18:02:03.921Z,37.10
2019-05-14T18:04:34.786Z,39.50
2019-05-14T18:07:05.595Z,40.30
2019-05-14T18:09:36.498Z,40.90
2019-05-14T18:12:08.216Z,40.50
2019-05-14T18:14:40.330Z,40.50
2019-05-14T18:17:14.354Z,42.50
2019-05-14T18:19:43.908Z,43.40
2019-05-14T18:22:16.370Z,43.20
2019-05-14T18:24:48.709Z,43.50
2019-05-14T18:27:19.645Z,42.20
2019-05-14T18:29:50.643Z,41.80
2019-05-14T18:32:22.847Z,41.70
2019-05-14T18:34:53.503Z,41.80
2019-05-14T18:37:24.029Z,41.90
2019-05-14T18:39:54.717Z,42.00
2019-05-14T18:42:25.329Z,42.20
2019-05-14T18:44:56.138Z,42.30
2019-05-14T18:47:29.056Z,42.40
2019-05-14T18:50:00.845Z,42.70
2019-05-14T18:52:31.895Z,42.70
2019-05-14T18:55:02.676Z,42.80
2019-05-14T18:57:33.406Z,43.00
2019-05-14T19:00:04.742Z,43.10
2019-05-14T19:02:39.205Z,43.20
2019-05-14T19:05:10.076Z,43.40
2019-05-14T19:07:41.311Z,43.60
2019-05-14T19:10:12.307Z,43.10
2019-05-14T19:12:43.113Z,43.70
2019-05-14T19:15:14.452Z,43.70
2019-05-14T19:17:45.329Z,43.90
2019-05-14T19:20:16.047Z,43.90
2019-05-14T19:22:49.028Z,44.20
2019-05-14T19:25:19.852Z,44.10
2019-05-14T19:27:50.834Z,44.20
2019-05-14T19:30:21.782Z,44.20
2019-05-14T19:32:53.137Z,44.10
2019-05-14T19:35:23.738Z,44.20
2019-05-14T19:37:54.267Z,44.20
2019-05-14T19:40:25.030Z,44.30
2019-05-14T19:42:55.740Z,44.20
2019-05-14T19:45:28.120Z,44.40
2019-05-14T19:47:59.063Z,44.40
2019-05-14T19:50:29.941Z,44.50
2019-05-14T19:53:01.754Z,44.30
2019-05-14T19:55:34.213Z,44.40
2019-05-14T19:58:04.910Z,44.30
2019-05-14T20:00:38.039Z,44.40
2019-05-14T20:03:08.812Z,44.20
2019-05-14T20:05:39.633Z,44.20
2019-05-14T20:08:10.208Z,44.20
2019-05-14T20:10:41.234Z,44.20
2019-05-14T20:13:12.074Z,44.20
2019-05-14T20:15:42.660Z,44.20
2019-05-14T20:18:13.297Z,44.30
2019-05-14T20:20:44.111Z,44.40
2019-05-14T20:23:14.601Z,44.20
2019-05-14T20:25:45.618Z,44.30
2019-05-14T20:28:18.763Z,44.50
2019-05-14T20:30:49.365Z,44.40
2019-05-14T20:33:20.598Z,44.50
2019-05-14T20:35:51.470Z,44.60
2019-05-14T20:38:22.321Z,44.50
2019-05-14T20:40:53.280Z,44.80
2019-05-14T20:43:24.045Z,44.90
2019-05-14T20:45:54.664Z,44.90
2019-05-14T20:48:28.047Z,45.20
2019-05-14T20:50:58.560Z,45.40
2019-05-14T20:53:29.454Z,45.40
2019-05-14T20:56:00.240Z,45.70
2019-05-14T20:58:30.889Z,46.00
2019-05-14T21:01:01.533Z,46.30
2019-05-14T21:03:32.390Z,46.30
2019-05-14T21:06:03.311Z,46.50
2019-05-14T21:08:34.115Z,46.80
2019-05-14T21:11:05.259Z,46.90
2019-05-14T21:13:35.946Z,47.10
2019-05-14T21:16:10.828Z,47.30
2019-05-14T21:18:41.233Z,47.60
2019-05-14T21:21:12.019Z,47.50
2019-05-14T21:23:42.683Z,47.80
2019-05-14T21:26:13.164Z,48.10
2019-05-14T21:28:43.951Z,48.30
2019-05-14T21:31:14.529Z,49.00
2019-05-14T21:33:45.291Z,48.60
2019-05-14T21:36:16.102Z,48.60
2019-05-14T21:38:48.979Z,48.70
2019-05-14T21:41:20.487Z,49.10
2019-05-14T21:43:51.513Z,49.30
2019-05-14T21:46:22.038Z,49.40
2019-05-14T21:48:52.745Z,49.60
2019-05-14T21:51:23.593Z,49.60
2019-05-14T21:53:54.201Z,50.40
2019-05-14T21:56:24.967Z,49.80
2019-05-14T21:58:55.756Z,49.90
2019-05-14T22:01:27.761Z,50.20
2019-05-14T22:03:59.412Z,50.20
2019-05-14T22:06:30.643Z,50.40
2019-05-14T22:09:01.643Z,50.40
2019-05-14T22:11:33.999Z,50.80
2019-05-14T22:14:04.858Z,50.60
2019-05-14T22:16:37.904Z,50.50
2019-05-14T22:19:08.500Z,50.60
2019-05-14T22:21:41.804Z,50.80
2019-05-14T22:24:12.014Z,50.60
2019-05-14T22:26:42.693Z,50.50
2019-05-14T22:29:14.962Z,50.60
2019-05-14T22:31:45.689Z,50.60
2019-05-14T22:34:18.292Z,50.50
2019-05-14T22:36:48.585Z,50.40
2019-05-14T22:39:20.079Z,50.60
2019-05-14T22:41:51.116Z,50.60
2019-05-14T22:44:21.994Z,50.80
2019-05-14T22:46:52.772Z,50.60
2019-05-14T22:49:23.610Z,50.60
2019-05-14T22:51:54.437Z,50.60
2019-05-14T22:54:25.286Z,50.70
2019-05-14T22:56:56.126Z,51.40
2019-05-14T22:59:28.376Z,50.80
2019-05-14T23:02:01.809Z,51.00
2019-05-14T23:04:32.715Z,51.10
2019-05-14T23:07:03.545Z,51.20
2019-05-14T23:09:34.077Z,51.40
2019-05-14T23:12:05.063Z,51.50
2019-05-14T23:14:36.122Z,51.60
2019-05-14T23:17:08.032Z,51.70
2019-05-14T23:19:39.114Z,51.80
2019-05-14T23:22:10.017Z,51.90
2019-05-14T23:24:40.879Z,51.90
2019-05-14T23:27:11.689Z,52.10
2019-05-14T23:29:42.567Z,52.20
2019-05-14T23:32:13.353Z,52.10
2019-05-14T23:34:44.025Z,51.90
2019-05-14T23:37:14.761Z,52.20
2019-05-14T23:39:45.853Z,52.20
2019-05-14T23:42:18.641Z,52.60
2019-05-14T23:44:49.335Z,52.60
2019-05-14T23:47:20.025Z,52.60
2019-05-14T23:49:50.826Z,52.60
2019-05-14T23:52:22.099Z,53.10
2019-05-14T23:54:52.778Z,53.50
2019-05-14T23:57:24.542Z,53.70
2019-05-14T23:59:55.209Z,53.60
